Flight Track Log - Related Links

Times and Time Zones

All times are in EDT time to prevent confusion due to time zone crossing. See the EJA102 flight status page for this flight to view local times or setup timezone preferences in your user account.

Time Position Orientation Groundspeed Altitude Reporting Facility
EDT Latitude Longitude Course Direction KTS MPH feet Rate Location/Type
Fri 06:35:49 PM 40.9500 -72.3000 224° Southwest 186 214 1,600  Level New York TRACON
Fri 06:36:49 PM 40.9000 -72.3500 217° Southwest 222 255 2,100 1,102 Climbing New York TRACON
Fri 06:37:27 PM 40.8792 -72.3933 238° Southwest 230 265 3,400 2,388 Climbing Boston Center
Fri 06:38:27 PM 40.8542 -72.4867 251° West 243 280 6,000 3,100 Climbing Boston Center
Fri 06:39:27 PM 40.8247 -72.5856 249° West 276 318 9,600 2,150 Climbing Boston Center
Fri 06:40:27 PM 40.7414 -72.6128 194° South 274 315 10,300 1,600 Climbing Boston Center
Fri 06:41:00 PM 40.5746 -72.7150 224° Southwest  Level FlightAware Approximate
Fri 06:41:27 PM 40.6497 -72.6453 195° South 295 339 12,800  Level Boston Center
Fri 06:43:41 PM 40.4811 -72.8531 223° Southwest 376 433 16,000 985 Climbing New York Center
Fri 06:44:42 PM 40.4022 -72.9461 222° Southwest 416 479 16,000 -397 Level New York Center
Fri 06:45:42 PM 40.3083 -73.0572 222° Southwest 421 484 15,200 -893 Descending New York Center
Fri 06:46:43 PM 40.2336 -73.1500 223° Southwest 421 484 14,200 -1,059 Descending New York Center
Fri 06:47:41 PM 40.1417 -73.2581 222° Southwest 416 479 13,100 -605 Descending New York Center
Fri 06:48:42 PM 40.0897 -73.3458 232° Southwest 370 426 13,000 -50 Descending New York Center
Fri 06:49:42 PM 40.0267 -73.4708 237° Southwest 369 425 13,000 -149 Level New York Center
Fri 06:50:43 PM 39.9678 -73.5769 234° Southwest 388 447 12,700 -1,388 Descending New York Center
Fri 06:51:43 PM 39.9150 -73.6856 238° Southwest 382 440 10,200 -2,746 Descending New York Center
Fri 06:52:41 PM 39.9128 -73.7831 268° West 322 371 7,300 -3,051 Descending New York Center
Fri 06:53:41 PM 39.9478 -73.8711 297° West 255 293 4,200 -1,636 Descending New York Center
Fri 06:54:42 PM 39.9753 -73.9400 298° West 237 273 4,000 -99 Descending New York Center
Fri 06:55:42 PM 40.0064 -74.0147 299° West 242 278 4,000  Level New York Center

Login

Don't have an account? Register now (free) for customized features, flight alerts, and more!